首页
METAR-TAF:

METAR-TAF

机场 :

华沙, 波兰

华沙肖邦机场

纬度: 52-10N, 经度: 020-58E, 海拔: 106米

当前天气观测

该预报发布于10分钟前的00:00 UTC
风速7节,风向西,在西南西转西北之间变化
温度 1°C
湿度 86%
气压 999 hPa
能见度10公里或以上
多云层高于600英尺

METAR: EPWA 180000Z 27007KT 220V300 9999 BKN006 01/M01 Q0999 R33/2///95 TEMPO 3000 SN

时间: 01:10 (00:10 UTC)

预报

该预报发布于40分钟前的23:30 UTC
预报有效从18日的 00点(UTC)到 18日的 24点(UTC)
风速8节,风向西
能见度10公里或以上
多云层高于2000英尺
几率 40% :
短暂存在
从 18日的 00点(UTC)到 18日的 08点(UTC)
能見度: 3000
多云层高于600英尺
小雪, 轻雾
成为
从 18日的 09点(UTC)到 18日的 11点(UTC)
风速10节,风向
成为
从 18日的 16点(UTC)到 18日的 18点(UTC)
能見度: 3000
多云层高于500英尺
阴天层高于1300英尺
雨, 雪
几率 40% :
短暂存在
从 18日的 16点(UTC)到 18日的 20点(UTC)
能見度: 0800
阴天层高于300英尺
雪, 雪, 雨

TAF: EPWA 172330Z 1800/1824 26008KT 9999 BKN020 PROB40 TEMPO 1800/1808 3000 -SN BR BKN006 BECMG 1809/1811 17010KT BECMG 1816/1818 3000 RASN BKN005 OVC013 PROB40 TEMPO 1816/1820 0800 SN SNRA OVC003

超过4000个机场的气象观测和天气预报(METAR&TAF报告)。

可查询的气象台以黄色和红色小点在地图上表示。

将鼠标移到小点上方,可查看气象台名称。

然后点击查看天气观测和预报。

如需切换地图:点击带黑十字的绿色按钮放大地图;点击带横线的绿色按钮缩小地图;或者点击绿色箭头查看邻近地区的地图。


METAR-TAF: